createdAt,value
2017-08-28T00:00:24.235Z,17.15
2017-08-28T00:02:51.897Z,16.60
2017-08-28T00:05:19.414Z,16.75
2017-08-28T00:07:46.936Z,16.62
2017-08-28T00:10:14.503Z,16.98
2017-08-28T00:12:42.027Z,16.88
2017-08-28T00:15:09.555Z,17.03
2017-08-28T00:17:37.110Z,16.93
2017-08-28T00:20:04.629Z,16.91
2017-08-28T00:22:32.162Z,16.83
2017-08-28T00:24:59.726Z,16.79
2017-08-28T00:27:27.255Z,16.65
2017-08-28T00:29:54.782Z,16.71
2017-08-28T00:32:22.299Z,16.83
2017-08-28T00:34:49.824Z,16.79
2017-08-28T00:37:17.446Z,16.80
2017-08-28T00:39:44.975Z,16.45
2017-08-28T00:42:12.489Z,16.31
2017-08-28T00:44:39.999Z,16.26
2017-08-28T00:47:07.519Z,16.68
2017-08-28T00:49:35.052Z,16.66
2017-08-28T00:52:02.566Z,16.58
2017-08-28T00:54:30.077Z,16.52
2017-08-28T00:56:57.606Z,16.10
2017-08-28T00:59:25.121Z,16.27
2017-08-28T01:01:52.656Z,16.41
2017-08-28T01:04:20.184Z,16.04
2017-08-28T01:06:47.690Z,16.37
2017-08-28T01:09:15.210Z,16.39
2017-08-28T01:11:42.728Z,16.66
2017-08-28T01:14:10.238Z,16.35
2017-08-28T01:16:37.756Z,16.43
2017-08-28T01:19:05.284Z,16.19
2017-08-28T01:21:32.810Z,16.51
2017-08-28T01:24:00.326Z,16.59
2017-08-28T01:26:27.840Z,16.50
2017-08-28T01:28:55.358Z,16.38
2017-08-28T01:31:22.883Z,16.42
2017-08-28T01:33:50.397Z,16.39
2017-08-28T01:36:17.918Z,16.05
2017-08-28T01:38:45.442Z,16.10
2017-08-28T01:41:12.957Z,15.79
2017-08-28T01:43:40.483Z,16.21
2017-08-28T01:46:08.005Z,16.41
2017-08-28T01:48:35.527Z,16.14
2017-08-28T01:51:03.048Z,15.81
2017-08-28T01:53:30.564Z,15.82
2017-08-28T01:55:58.082Z,15.67
2017-08-28T01:58:25.615Z,15.75
2017-08-28T02:00:53.128Z,15.51
2017-08-28T02:03:20.664Z,15.57
2017-08-28T02:05:48.182Z,15.51
2017-08-28T02:08:15.692Z,15.71
2017-08-28T02:10:43.224Z,15.90
2017-08-28T02:13:10.752Z,15.89
2017-08-28T02:15:38.285Z,15.72
2017-08-28T02:18:05.816Z,15.74
2017-08-28T02:20:33.357Z,15.66
2017-08-28T02:23:00.871Z,15.84
2017-08-28T02:25:28.409Z,15.99
2017-08-28T02:27:55.956Z,15.94
2017-08-28T02:30:23.474Z,15.70
2017-08-28T02:32:51.013Z,15.90
2017-08-28T02:35:18.551Z,15.88
2017-08-28T02:37:46.097Z,15.90
2017-08-28T02:40:13.604Z,15.87
2017-08-28T02:42:41.127Z,15.77
2017-08-28T02:45:08.658Z,15.92
2017-08-28T02:47:36.175Z,15.82
2017-08-28T02:50:03.708Z,15.77
2017-08-28T02:52:31.221Z,15.75
2017-08-28T02:54:58.727Z,15.85
2017-08-28T02:57:26.256Z,15.75
2017-08-28T02:59:53.779Z,15.72
2017-08-28T03:02:21.432Z,15.68
2017-08-28T03:04:48.940Z,15.58
2017-08-28T03:07:16.455Z,15.64
2017-08-28T03:09:43.967Z,15.64
2017-08-28T03:12:11.479Z,15.40
2017-08-28T03:14:39.006Z,15.76
2017-08-28T03:17:06.528Z,15.34
2017-08-28T03:19:34.060Z,15.57
2017-08-28T03:22:01.577Z,15.45
2017-08-28T03:24:29.118Z,15.39
2017-08-28T03:26:56.632Z,14.99
2017-08-28T03:29:24.151Z,15.35
2017-08-28T03:31:51.687Z,15.56
2017-08-28T03:34:19.196Z,15.60
2017-08-28T03:36:46.733Z,15.40
2017-08-28T03:39:14.260Z,15.51
2017-08-28T03:41:41.798Z,15.68
2017-08-28T03:44:09.321Z,15.65
2017-08-28T03:46:36.838Z,15.89
2017-08-28T03:49:04.348Z,15.58
2017-08-28T03:51:31.930Z,15.36
2017-08-28T03:53:59.447Z,15.31
2017-08-28T03:56:26.979Z,15.22
2017-08-28T03:58:54.495Z,15.38
2017-08-28T04:01:22.041Z,15.54
2017-08-28T04:03:50.114Z,15.16
2017-08-28T04:06:20.668Z,15.55
2017-08-28T04:08:48.204Z,15.56
2017-08-28T04:11:15.726Z,15.60
2017-08-28T04:13:43.246Z,15.72
2017-08-28T04:16:10.767Z,15.91
2017-08-28T04:18:38.302Z,15.70
2017-08-28T04:21:05.836Z,15.78
2017-08-28T04:23:33.792Z,15.97
2017-08-28T04:26:01.444Z,16.02
2017-08-28T04:28:28.980Z,16.06
2017-08-28T04:30:56.496Z,15.89
2017-08-28T04:33:24.023Z,15.52
2017-08-28T04:35:51.534Z,15.70
2017-08-28T04:38:19.081Z,15.70
2017-08-28T04:40:46.603Z,15.81
2017-08-28T04:43:14.117Z,15.75
2017-08-28T04:45:41.665Z,15.71
2017-08-28T04:48:09.201Z,15.60
2017-08-28T04:50:36.711Z,15.74
2017-08-28T04:53:04.226Z,15.84
2017-08-28T04:55:31.734Z,15.97
2017-08-28T04:57:59.275Z,16.14
2017-08-28T05:00:26.795Z,16.01
2017-08-28T05:02:54.298Z,15.94
2017-08-28T05:05:21.806Z,15.97
2017-08-28T05:07:49.319Z,15.85
2017-08-28T05:10:16.886Z,16.02
2017-08-28T05:12:44.394Z,16.09
2017-08-28T05:15:12.167Z,16.16
2017-08-28T05:17:39.756Z,16.58
2017-08-28T05:20:07.272Z,16.60
2017-08-28T05:22:34.798Z,16.57
2017-08-28T05:25:02.314Z,16.83
2017-08-28T05:27:29.843Z,16.61
2017-08-28T05:29:57.355Z,16.58
2017-08-28T05:32:24.888Z,16.47
2017-08-28T05:34:52.408Z,16.49
2017-08-28T05:37:19.936Z,16.52
2017-08-28T05:39:47.460Z,16.60
2017-08-28T05:42:14.993Z,16.83
2017-08-28T05:44:42.506Z,16.73
2017-08-28T05:47:10.052Z,16.73
2017-08-28T05:49:37.586Z,16.77
2017-08-28T05:52:05.116Z,16.88
2017-08-28T05:54:32.655Z,16.92
2017-08-28T05:57:01.320Z,16.90
2017-08-28T05:59:28.853Z,16.98
2017-08-28T06:01:56.378Z,17.06
2017-08-28T06:04:23.901Z,16.98
2017-08-28T06:06:51.434Z,17.08
2017-08-28T06:09:18.967Z,17.09
2017-08-28T06:11:46.480Z,17.14
2017-08-28T06:14:14.006Z,17.30
2017-08-28T06:16:41.585Z,17.56
2017-08-28T06:19:09.130Z,17.21
2017-08-28T06:21:36.878Z,17.38
2017-08-28T06:24:04.418Z,17.16
2017-08-28T06:26:31.947Z,17.34
2017-08-28T06:28:59.486Z,17.39
2017-08-28T06:31:27.011Z,17.27
2017-08-28T06:33:54.543Z,17.24
2017-08-28T06:36:22.080Z,17.29
2017-08-28T06:38:49.591Z,17.65
2017-08-28T06:41:17.115Z,17.72
2017-08-28T06:43:44.649Z,17.86
2017-08-28T06:46:12.163Z,17.79
2017-08-28T06:48:39.683Z,18.20
2017-08-28T06:51:07.214Z,17.89
2017-08-28T06:53:34.756Z,18.03
2017-08-28T06:56:02.370Z,18.20
2017-08-28T06:58:29.916Z,18.27
2017-08-28T07:00:57.481Z,18.54
2017-08-28T07:03:25.040Z,18.75
2017-08-28T07:05:52.559Z,18.62
2017-08-28T07:08:20.414Z,18.36
2017-08-28T07:10:47.957Z,18.21
2017-08-28T07:13:15.486Z,18.80
2017-08-28T07:15:43.018Z,18.70
2017-08-28T07:18:10.558Z,18.64
2017-08-28T07:20:38.151Z,18.94
2017-08-28T07:23:05.670Z,18.91
2017-08-28T07:25:33.248Z,19.23
2017-08-28T07:28:00.792Z,19.23
2017-08-28T07:30:28.353Z,19.33
2017-08-28T07:32:55.894Z,19.37
2017-08-28T07:35:23.439Z,19.44
2017-08-28T07:37:50.995Z,19.51
2017-08-28T07:40:18.556Z,19.74
2017-08-28T07:42:46.101Z,19.24
2017-08-28T07:45:13.653Z,20.33
2017-08-28T07:47:41.171Z,19.92
2017-08-28T07:50:08.702Z,19.57
2017-08-28T07:52:36.238Z,19.72
2017-08-28T07:55:03.777Z,20.19
2017-08-28T07:57:31.303Z,20.25
2017-08-28T07:59:58.839Z,20.14
2017-08-28T08:02:26.383Z,20.28
2017-08-28T08:04:53.947Z,20.18
2017-08-28T08:07:21.498Z,20.76
2017-08-28T08:09:49.058Z,20.94
2017-08-28T08:12:16.634Z,21.96
2017-08-28T08:14:44.177Z,24.41
2017-08-28T08:17:11.740Z,26.67
2017-08-28T08:19:39.314Z,26.67
2017-08-28T08:22:06.862Z,27.62
2017-08-28T08:24:34.418Z,27.18
2017-08-28T08:27:01.957Z,26.57
2017-08-28T08:29:29.501Z,27.48
2017-08-28T08:31:57.058Z,27.51
2017-08-28T08:34:24.600Z,27.40
2017-08-28T08:36:52.143Z,28.69
2017-08-28T08:39:19.712Z,29.73
2017-08-28T08:41:47.283Z,29.38
2017-08-28T08:44:14.831Z,29.49
2017-08-28T08:46:42.379Z,31.15
2017-08-28T08:49:09.946Z,31.39
2017-08-28T08:51:37.504Z,28.99
2017-08-28T08:54:05.059Z,28.74
2017-08-28T08:56:32.600Z,28.80
2017-08-28T08:59:00.135Z,31.57
2017-08-28T09:01:27.698Z,31.25
2017-08-28T09:03:55.248Z,32.27
2017-08-28T09:06:22.794Z,30.15
2017-08-28T09:08:50.336Z,32.48
2017-08-28T09:11:17.867Z,32.99
2017-08-28T09:13:45.400Z,31.69
2017-08-28T09:16:13.903Z,30.97
2017-08-28T09:18:41.500Z,31.99
2017-08-28T09:21:09.042Z,31.63
2017-08-28T09:23:36.604Z,30.35
2017-08-28T09:26:04.148Z,31.18
2017-08-28T09:28:31.668Z,32.56
2017-08-28T09:30:59.226Z,30.25
2017-08-28T09:33:26.772Z,31.37
2017-08-28T09:35:54.332Z,31.04
2017-08-28T09:38:21.883Z,32.43
2017-08-28T09:40:49.451Z,31.05
2017-08-28T09:43:17.003Z,34.01
2017-08-28T09:45:44.535Z,33.33
2017-08-28T09:48:12.064Z,35.03
2017-08-28T09:50:39.580Z,36.39
2017-08-28T09:53:07.087Z,35.50
2017-08-28T09:55:34.716Z,32.96
2017-08-28T09:58:02.295Z,32.61
2017-08-28T10:00:29.815Z,33.47
2017-08-28T10:02:57.338Z,34.11
2017-08-28T10:05:24.855Z,34.14
2017-08-28T10:07:52.368Z,36.64
2017-08-28T10:10:19.887Z,33.35
2017-08-28T10:12:47.395Z,35.83
2017-08-28T10:15:14.921Z,34.92
2017-08-28T10:17:42.427Z,35.16
2017-08-28T10:20:09.982Z,34.65
2017-08-28T10:22:37.497Z,35.78
2017-08-28T10:25:04.998Z,38.69
2017-08-28T10:27:31.970Z,34.04
2017-08-28T10:29:59.483Z,33.56
2017-08-28T10:32:27.053Z,33.13
2017-08-28T10:34:54.584Z,34.26
2017-08-28T10:37:22.088Z,33.59
2017-08-28T10:39:49.610Z,32.71
2017-08-28T10:42:17.117Z,35.02
2017-08-28T10:44:44.637Z,36.32
2017-08-28T10:47:12.191Z,35.77
2017-08-28T10:49:39.724Z,32.44
2017-08-28T10:52:07.271Z,33.11
2017-08-28T10:54:34.824Z,32.36
2017-08-28T10:57:02.357Z,32.57
2017-08-28T10:59:29.875Z,32.64
2017-08-28T11:01:57.426Z,34.03
2017-08-28T11:04:24.942Z,32.59
2017-08-28T11:06:52.473Z,32.65
2017-08-28T11:09:19.999Z,34.71
2017-08-28T11:11:47.823Z,30.65
2017-08-28T11:14:15.352Z,28.94
2017-08-28T11:16:42.882Z,29.23
2017-08-28T11:19:10.410Z,29.38
2017-08-28T11:21:37.911Z,29.62
2017-08-28T11:24:05.439Z,28.84
2017-08-28T11:26:32.997Z,29.85
2017-08-28T11:29:00.500Z,29.73
2017-08-28T11:31:28.088Z,29.56
2017-08-28T11:33:55.610Z,28.47
2017-08-28T11:36:23.212Z,29.42
2017-08-28T11:38:50.733Z,28.06
2017-08-28T11:41:18.271Z,28.35
2017-08-28T11:43:45.792Z,28.97
2017-08-28T11:46:13.342Z,29.09
2017-08-28T11:48:40.850Z,28.99
2017-08-28T11:51:08.362Z,28.68
2017-08-28T11:53:35.882Z,28.82
2017-08-28T11:56:03.419Z,30.58
2017-08-28T11:58:30.948Z,28.68
2017-08-28T12:00:58.481Z,29.22
2017-08-28T12:03:26.013Z,28.81
2017-08-28T12:05:53.545Z,29.29
2017-08-28T12:08:21.111Z,29.31
2017-08-28T12:10:48.633Z,29.96
2017-08-28T12:13:16.166Z,30.19
2017-08-28T12:15:43.692Z,29.14
2017-08-28T12:18:11.196Z,29.51
2017-08-28T12:20:38.714Z,29.84
2017-08-28T12:23:06.236Z,30.69
2017-08-28T12:25:34.554Z,29.65
2017-08-28T12:28:02.558Z,29.64
2017-08-28T12:30:30.081Z,29.54
2017-08-28T12:32:57.607Z,29.93
2017-08-28T12:35:25.132Z,29.58
2017-08-28T12:37:52.672Z,29.66
2017-08-28T12:40:20.214Z,29.49
2017-08-28T12:42:47.728Z,29.23
2017-08-28T12:45:15.234Z,30.25
2017-08-28T12:47:42.839Z,30.25
2017-08-28T12:50:10.350Z,29.81
2017-08-28T12:52:37.866Z,28.66
2017-08-28T12:55:05.398Z,29.08
2017-08-28T12:57:32.924Z,30.47
2017-08-28T13:00:00.461Z,30.13
2017-08-28T13:02:28.012Z,30.21
2017-08-28T13:04:55.529Z,30.27
2017-08-28T13:07:23.057Z,30.08
2017-08-28T13:09:50.604Z,30.19
2017-08-28T13:12:18.117Z,29.82
2017-08-28T13:14:45.628Z,30.01
2017-08-28T13:17:13.150Z,29.83
2017-08-28T13:19:40.715Z,29.58
2017-08-28T13:22:08.245Z,29.29
2017-08-28T13:24:35.756Z,29.52
2017-08-28T13:27:03.317Z,28.99
2017-08-28T13:29:30.903Z,29.78
2017-08-28T13:31:58.435Z,29.96
2017-08-28T13:34:25.945Z,29.63
2017-08-28T13:36:53.444Z,29.20
2017-08-28T13:39:21.006Z,28.72
2017-08-28T13:41:48.531Z,29.93
2017-08-28T13:44:16.060Z,29.64
2017-08-28T13:46:43.592Z,29.44
2017-08-28T13:49:11.118Z,28.70
2017-08-28T13:51:38.637Z,28.70
2017-08-28T13:54:06.256Z,28.89
2017-08-28T13:56:33.777Z,29.56
2017-08-28T13:59:01.276Z,30.05
2017-08-28T14:01:28.819Z,29.83
2017-08-28T14:03:56.329Z,29.81
2017-08-28T14:06:23.858Z,29.89
2017-08-28T14:08:51.408Z,29.53
2017-08-28T14:11:18.936Z,29.46
2017-08-28T14:13:46.469Z,30.15
2017-08-28T14:16:14.023Z,29.90
2017-08-28T14:18:41.558Z,29.50
2017-08-28T14:21:09.064Z,29.37
2017-08-28T14:23:36.583Z,29.72
2017-08-28T14:26:04.098Z,29.96
2017-08-28T14:28:31.634Z,30.20
2017-08-28T14:30:59.145Z,29.51
2017-08-28T14:33:26.728Z,29.19
2017-08-28T14:35:54.267Z,29.20
2017-08-28T14:38:21.780Z,29.58
2017-08-28T14:40:49.342Z,29.34
2017-08-28T14:43:16.858Z,28.84
2017-08-28T14:45:44.371Z,29.07
2017-08-28T14:48:11.888Z,29.19
2017-08-28T14:50:39.540Z,28.44
2017-08-28T14:53:07.068Z,28.46
2017-08-28T14:55:34.594Z,28.84
2017-08-28T14:58:02.109Z,29.07
2017-08-28T15:00:29.611Z,29.14
2017-08-28T15:02:57.137Z,28.28
2017-08-28T15:05:24.652Z,28.33
2017-08-28T15:07:52.171Z,28.12
2017-08-28T15:10:19.717Z,27.80
2017-08-28T15:12:47.232Z,28.41
2017-08-28T15:15:14.730Z,28.40
2017-08-28T15:17:42.279Z,28.74
2017-08-28T15:20:09.820Z,28.23
2017-08-28T15:22:38.513Z,28.48
2017-08-28T15:25:06.061Z,28.74
2017-08-28T15:27:33.579Z,28.37
2017-08-28T15:30:01.092Z,28.51
2017-08-28T15:32:28.609Z,28.42
2017-08-28T15:34:56.142Z,28.30
2017-08-28T15:37:23.666Z,28.62
2017-08-28T15:39:51.182Z,28.41
2017-08-28T15:42:18.699Z,28.39
2017-08-28T15:44:46.257Z,28.29
2017-08-28T15:47:13.804Z,28.07
2017-08-28T15:49:41.312Z,28.05
2017-08-28T15:52:08.872Z,27.89
2017-08-28T15:54:36.391Z,27.71
2017-08-28T15:57:03.900Z,27.71
2017-08-28T15:59:31.407Z,27.78
2017-08-28T16:01:58.947Z,27.86
2017-08-28T16:04:26.446Z,27.34
2017-08-28T16:06:54.074Z,27.14
2017-08-28T16:09:21.612Z,27.22
2017-08-28T16:11:49.186Z,27.23
2017-08-28T16:14:16.720Z,27.33
2017-08-28T16:16:44.305Z,27.43
2017-08-28T16:19:11.811Z,27.41
2017-08-28T16:21:39.327Z,27.37
2017-08-28T16:24:06.851Z,27.16
2017-08-28T16:26:34.435Z,27.03
2017-08-28T16:29:01.961Z,26.96
2017-08-28T16:31:29.502Z,27.00
2017-08-28T16:33:57.063Z,27.29
2017-08-28T16:36:24.591Z,27.30
2017-08-28T16:38:52.133Z,27.31
2017-08-28T16:41:19.651Z,27.06
2017-08-28T16:43:47.181Z,27.23
2017-08-28T16:46:14.723Z,26.76
2017-08-28T16:48:42.235Z,26.96
2017-08-28T16:51:09.737Z,27.04
2017-08-28T16:53:37.278Z,26.97
2017-08-28T16:56:04.823Z,26.64
2017-08-28T16:58:32.357Z,26.51
2017-08-28T17:00:59.883Z,26.29
2017-08-28T17:03:27.424Z,26.32
2017-08-28T17:05:54.972Z,26.39
2017-08-28T17:08:22.508Z,26.32
2017-08-28T17:10:50.039Z,25.97
2017-08-28T17:13:17.554Z,25.47
2017-08-28T17:15:45.074Z,25.22
2017-08-28T17:18:12.585Z,25.36
2017-08-28T17:20:40.126Z,24.80
2017-08-28T17:23:07.657Z,24.52
2017-08-28T17:25:35.210Z,24.82
2017-08-28T17:28:02.720Z,24.61
2017-08-28T17:30:30.227Z,24.48
2017-08-28T17:32:57.913Z,24.35
2017-08-28T17:35:25.472Z,23.87
2017-08-28T17:37:52.971Z,23.97
2017-08-28T17:40:20.484Z,24.03
2017-08-28T17:42:48.048Z,23.61
2017-08-28T17:45:15.570Z,23.48
2017-08-28T17:47:43.218Z,23.17
2017-08-28T17:50:10.741Z,23.54
2017-08-28T17:52:38.263Z,23.26
2017-08-28T17:55:05.786Z,23.16
2017-08-28T17:57:33.316Z,22.83
2017-08-28T18:00:00.848Z,22.76
2017-08-28T18:02:28.366Z,22.77
2017-08-28T18:04:55.892Z,22.60
2017-08-28T18:07:23.417Z,22.36
2017-08-28T18:09:50.952Z,22.46
2017-08-28T18:12:18.459Z,22.15
2017-08-28T18:14:46.000Z,22.13
2017-08-28T18:17:13.538Z,22.15
2017-08-28T18:19:41.056Z,21.86
2017-08-28T18:22:08.596Z,21.25
2017-08-28T18:24:36.103Z,21.39
2017-08-28T18:27:03.647Z,21.26
2017-08-28T18:29:31.195Z,21.58
2017-08-28T18:31:58.734Z,21.12
2017-08-28T18:34:26.272Z,20.74
2017-08-28T18:36:53.925Z,21.00
2017-08-28T18:39:21.455Z,21.10
2017-08-28T18:41:48.988Z,20.98
2017-08-28T18:44:16.517Z,21.06
2017-08-28T18:46:44.071Z,20.60
2017-08-28T18:49:11.591Z,20.63
2017-08-28T18:51:39.107Z,20.89
2017-08-28T18:54:06.694Z,20.86
2017-08-28T18:56:34.227Z,20.58
2017-08-28T18:59:01.772Z,20.29
2017-08-28T19:01:29.292Z,20.41
2017-08-28T19:03:56.836Z,20.15
2017-08-28T19:06:24.377Z,20.33
2017-08-28T19:08:52.920Z,20.35
2017-08-28T19:11:20.576Z,19.99
2017-08-28T19:13:48.111Z,19.68
2017-08-28T19:16:15.614Z,19.82
2017-08-28T19:18:43.198Z,19.97
2017-08-28T19:21:10.728Z,19.92
2017-08-28T19:23:38.259Z,19.62
2017-08-28T19:26:05.815Z,19.32
2017-08-28T19:28:33.449Z,19.54
2017-08-28T19:31:01.016Z,19.76
2017-08-28T19:33:41.660Z,19.92
2017-08-28T19:36:09.206Z,19.87
2017-08-28T19:38:36.736Z,19.19
2017-08-28T19:41:04.270Z,19.38
2017-08-28T19:43:31.807Z,19.02
2017-08-28T19:45:59.321Z,18.80
2017-08-28T19:48:26.912Z,18.90
2017-08-28T19:50:54.568Z,18.72
2017-08-28T19:53:22.099Z,19.19
2017-08-28T19:55:49.675Z,18.90
2017-08-28T19:58:17.208Z,18.62
2017-08-28T20:00:44.750Z,18.55
2017-08-28T20:03:12.272Z,18.77
2017-08-28T20:05:39.873Z,18.71
2017-08-28T20:08:07.417Z,19.13
2017-08-28T20:10:34.948Z,18.59
2017-08-28T20:13:02.484Z,18.69
2017-08-28T20:15:30.014Z,18.43
2017-08-28T20:17:57.557Z,18.61
2017-08-28T20:20:25.098Z,18.74
2017-08-28T20:22:52.647Z,18.43
2017-08-28T20:25:20.165Z,18.79
2017-08-28T20:27:47.696Z,18.92
2017-08-28T20:30:15.219Z,18.62
2017-08-28T20:32:42.754Z,18.53
2017-08-28T20:35:10.325Z,18.50
2017-08-28T20:37:37.839Z,18.43
2017-08-28T20:40:05.388Z,18.22
2017-08-28T20:42:32.923Z,18.39
2017-08-28T20:45:00.476Z,18.46
2017-08-28T20:47:27.991Z,17.97
2017-08-28T20:49:55.519Z,17.87
2017-08-28T20:52:23.050Z,18.32
2017-08-28T20:54:50.574Z,18.12
2017-08-28T20:57:18.104Z,18.05
2017-08-28T20:59:45.635Z,18.37
2017-08-28T21:02:13.225Z,18.19
2017-08-28T21:04:43.023Z,17.59
2017-08-28T21:07:10.614Z,17.81
2017-08-28T21:09:38.157Z,18.11
2017-08-28T21:12:05.698Z,18.24
2017-08-28T21:14:33.300Z,18.45
2017-08-28T21:17:00.821Z,18.36
2017-08-28T21:19:28.351Z,17.71
2017-08-28T21:21:55.907Z,17.76
2017-08-28T21:24:23.431Z,17.59
2017-08-28T21:26:50.948Z,17.37
2017-08-28T21:29:18.492Z,17.96
2017-08-28T21:31:46.013Z,18.13
2017-08-28T21:34:13.548Z,17.85
2017-08-28T21:36:41.091Z,17.90
2017-08-28T21:39:08.607Z,17.65
2017-08-28T21:41:36.133Z,17.82
2017-08-28T21:44:03.692Z,17.77
2017-08-28T21:46:31.215Z,17.39
2017-08-28T21:48:58.739Z,17.35
2017-08-28T21:51:26.262Z,17.80
2017-08-28T21:53:53.768Z,17.40
2017-08-28T21:56:21.299Z,17.94
2017-08-28T21:58:48.832Z,17.91
2017-08-28T22:01:16.353Z,17.65
2017-08-28T22:03:43.873Z,17.46
2017-08-28T22:06:11.429Z,17.55
2017-08-28T22:08:38.989Z,17.55
2017-08-28T22:11:06.515Z,17.72
2017-08-28T22:13:34.043Z,17.66
2017-08-28T22:16:01.571Z,17.53
2017-08-28T22:18:29.114Z,17.25
2017-08-28T22:20:56.647Z,16.79
2017-08-28T22:23:24.182Z,16.91
2017-08-28T22:25:51.721Z,16.90
2017-08-28T22:28:19.243Z,17.00
2017-08-28T22:30:46.781Z,16.88
2017-08-28T22:33:14.303Z,17.00
2017-08-28T22:35:41.842Z,17.17
2017-08-28T22:38:09.360Z,16.52
2017-08-28T22:40:36.884Z,16.79
2017-08-28T22:43:04.554Z,17.02
2017-08-28T22:45:32.080Z,17.23
2017-08-28T22:47:59.628Z,16.72
2017-08-28T22:50:27.149Z,16.17
2017-08-28T22:52:54.676Z,16.28
2017-08-28T22:55:22.217Z,16.54
2017-08-28T22:57:49.744Z,16.85
2017-08-28T23:00:17.280Z,16.48
2017-08-28T23:02:44.800Z,16.57
2017-08-28T23:05:12.325Z,16.74
2017-08-28T23:07:39.868Z,16.46
2017-08-28T23:10:07.383Z,16.67
2017-08-28T23:12:34.901Z,16.09
2017-08-28T23:15:02.429Z,16.43
2017-08-28T23:17:29.946Z,16.56
2017-08-28T23:19:57.474Z,16.77
2017-08-28T23:22:24.998Z,16.86
2017-08-28T23:24:52.524Z,16.97
2017-08-28T23:27:20.036Z,16.67
2017-08-28T23:29:48.511Z,16.85
2017-08-28T23:32:16.049Z,16.97
2017-08-28T23:34:43.588Z,16.67
2017-08-28T23:37:11.127Z,16.47
2017-08-28T23:39:38.640Z,16.49
2017-08-28T23:42:06.154Z,16.49
2017-08-28T23:44:33.776Z,16.42
2017-08-28T23:47:01.324Z,16.56
2017-08-28T23:49:28.860Z,16.38
2017-08-28T23:51:56.378Z,15.83
2017-08-28T23:54:23.911Z,15.84
2017-08-28T23:56:51.448Z,15.83
2017-08-28T23:59:19.010Z,15.73
